sensor_id;sensor_type;location;lat;lon;timestamp;P1;durP1;ratioP1;P2;durP2;ratioP2
19030;SDS011;9648;51.130;13.978;2022-09-29T00:02:03;6.13;;;4.60;;
19030;SDS011;9648;51.130;13.978;2022-09-29T00:04:29;6.78;;;4.78;;
19030;SDS011;9648;51.130;13.978;2022-09-29T00:06:56;6.43;;;5.30;;
19030;SDS011;9648;51.130;13.978;2022-09-29T00:09:24;5.72;;;5.05;;
19030;SDS011;9648;51.130;13.978;2022-09-29T00:11:52;5.85;;;4.70;;
19030;SDS011;9648;51.130;13.978;2022-09-29T00:14:19;5.97;;;4.80;;
19030;SDS011;9648;51.130;13.978;2022-09-29T00:16:46;5.80;;;4.95;;
19030;SDS011;9648;51.130;13.978;2022-09-29T00:19:13;6.55;;;5.00;;
19030;SDS011;9648;51.130;13.978;2022-09-29T00:21:40;6.63;;;4.93;;
19030;SDS011;9648;51.130;13.978;2022-09-29T00:24:07;5.50;;;4.70;;
19030;SDS011;9648;51.130;13.978;2022-09-29T00:26:35;6.18;;;4.57;;
19030;SDS011;9648;51.130;13.978;2022-09-29T00:29:02;5.85;;;4.80;;
19030;SDS011;9648;51.130;13.978;2022-09-29T00:31:30;6.10;;;4.50;;
19030;SDS011;9648;51.130;13.978;2022-09-29T00:33:58;6.57;;;4.82;;
19030;SDS011;9648;51.130;13.978;2022-09-29T00:36:24;6.45;;;5.05;;
19030;SDS011;9648;51.130;13.978;2022-09-29T00:38:54;6.78;;;5.10;;
19030;SDS011;9648;51.130;13.978;2022-09-29T00:41:22;5.93;;;4.70;;
19030;SDS011;9648;51.130;13.978;2022-09-29T00:43:56;6.23;;;5.00;;
19030;SDS011;9648;51.130;13.978;2022-09-29T00:46:29;6.60;;;4.70;;
19030;SDS011;9648;51.130;13.978;2022-09-29T00:49:04;5.90;;;4.88;;
19030;SDS011;9648;51.130;13.978;2022-09-29T00:51:41;5.97;;;4.45;;
19030;SDS011;9648;51.130;13.978;2022-09-29T00:54:11;6.40;;;4.75;;
19030;SDS011;9648;51.130;13.978;2022-09-29T00:56:39;6.00;;;4.60;;
19030;SDS011;9648;51.130;13.978;2022-09-29T00:59:10;5.93;;;4.40;;
19030;SDS011;9648;51.130;13.978;2022-09-29T01:01:39;6.07;;;4.35;;
19030;SDS011;9648;51.130;13.978;2022-09-29T01:04:08;5.07;;;4.30;;
19030;SDS011;9648;51.130;13.978;2022-09-29T01:06:38;5.35;;;4.38;;
19030;SDS011;9648;51.130;13.978;2022-09-29T01:09:08;6.30;;;4.80;;
19030;SDS011;9648;51.130;13.978;2022-09-29T01:11:38;6.03;;;4.20;;
19030;SDS011;9648;51.130;13.978;2022-09-29T01:14:06;4.82;;;3.95;;
19030;SDS011;9648;51.130;13.978;2022-09-29T01:16:36;5.20;;;4.15;;
19030;SDS011;9648;51.130;13.978;2022-09-29T01:19:06;5.20;;;3.95;;
19030;SDS011;9648;51.130;13.978;2022-09-29T01:21:40;4.97;;;4.13;;
19030;SDS011;9648;51.130;13.978;2022-09-29T01:24:18;5.75;;;4.10;;
19030;SDS011;9648;51.130;13.978;2022-09-29T01:27:18;7.03;;;4.53;;
19030;SDS011;9648;51.130;13.978;2022-09-29T01:30:03;6.10;;;4.60;;
19030;SDS011;9648;51.130;13.978;2022-09-29T01:32:44;5.45;;;4.32;;
19030;SDS011;9648;51.130;13.978;2022-09-29T01:35:22;5.68;;;4.25;;
19030;SDS011;9648;51.130;13.978;2022-09-29T01:37:57;5.65;;;4.10;;
19030;SDS011;9648;51.130;13.978;2022-09-29T01:40:34;6.30;;;4.17;;
19030;SDS011;9648;51.130;13.978;2022-09-29T01:43:11;4.80;;;3.95;;
19030;SDS011;9648;51.130;13.978;2022-09-29T01:45:42;5.07;;;3.90;;
19030;SDS011;9648;51.130;13.978;2022-09-29T01:48:15;5.10;;;3.90;;
19030;SDS011;9648;51.130;13.978;2022-09-29T01:50:48;4.82;;;4.03;;
19030;SDS011;9648;51.130;13.978;2022-09-29T01:53:18;4.38;;;3.95;;
19030;SDS011;9648;51.130;13.978;2022-09-29T01:55:49;4.85;;;3.88;;
19030;SDS011;9648;51.130;13.978;2022-09-29T01:58:22;4.43;;;3.47;;
19030;SDS011;9648;51.130;13.978;2022-09-29T02:00:54;4.63;;;3.25;;
19030;SDS011;9648;51.130;13.978;2022-09-29T02:03:27;4.57;;;3.40;;
19030;SDS011;9648;51.130;13.978;2022-09-29T02:05:57;3.70;;;3.25;;
19030;SDS011;9648;51.130;13.978;2022-09-29T02:08:27;4.63;;;3.72;;
19030;SDS011;9648;51.130;13.978;2022-09-29T02:10:58;3.75;;;3.30;;
19030;SDS011;9648;51.130;13.978;2022-09-29T02:13:28;3.80;;;3.22;;
19030;SDS011;9648;51.130;13.978;2022-09-29T02:15:56;3.53;;;3.00;;
19030;SDS011;9648;51.130;13.978;2022-09-29T02:18:27;4.10;;;3.42;;
19030;SDS011;9648;51.130;13.978;2022-09-29T02:20:58;5.87;;;3.50;;
19030;SDS011;9648;51.130;13.978;2022-09-29T02:23:26;3.83;;;3.40;;
19030;SDS011;9648;51.130;13.978;2022-09-29T02:25:53;4.63;;;3.33;;
19030;SDS011;9648;51.130;13.978;2022-09-29T02:28:23;4.90;;;3.40;;
19030;SDS011;9648;51.130;13.978;2022-09-29T02:30:50;4.38;;;3.38;;
19030;SDS011;9648;51.130;13.978;2022-09-29T02:33:19;4.40;;;3.50;;
19030;SDS011;9648;51.130;13.978;2022-09-29T02:35:53;4.28;;;3.45;;
19030;SDS011;9648;51.130;13.978;2022-09-29T02:38:29;3.80;;;3.17;;
19030;SDS011;9648;51.130;13.978;2022-09-29T02:41:05;4.28;;;3.40;;
19030;SDS011;9648;51.130;13.978;2022-09-29T02:46:46;4.13;;;3.40;;
19030;SDS011;9648;51.130;13.978;2022-09-29T02:49:26;5.63;;;3.53;;
19030;SDS011;9648;51.130;13.978;2022-09-29T02:52:03;5.13;;;3.38;;
19030;SDS011;9648;51.130;13.978;2022-09-29T02:54:46;4.45;;;3.50;;
19030;SDS011;9648;51.130;13.978;2022-09-29T02:57:23;3.85;;;3.13;;
19030;SDS011;9648;51.130;13.978;2022-09-29T02:59:56;4.50;;;3.58;;
19030;SDS011;9648;51.130;13.978;2022-09-29T03:02:32;3.90;;;3.40;;
19030;SDS011;9648;51.130;13.978;2022-09-29T03:04:59;4.93;;;3.25;;
19030;SDS011;9648;51.130;13.978;2022-09-29T03:07:27;4.80;;;3.25;;
19030;SDS011;9648;51.130;13.978;2022-09-29T03:09:54;4.63;;;3.60;;
19030;SDS011;9648;51.130;13.978;2022-09-29T03:12:21;3.95;;;3.35;;
19030;SDS011;9648;51.130;13.978;2022-09-29T03:14:47;5.03;;;3.35;;
19030;SDS011;9648;51.130;13.978;2022-09-29T03:17:14;4.22;;;3.30;;
19030;SDS011;9648;51.130;13.978;2022-09-29T03:19:41;3.92;;;3.30;;
19030;SDS011;9648;51.130;13.978;2022-09-29T03:22:07;7.53;;;3.45;;
19030;SDS011;9648;51.130;13.978;2022-09-29T03:24:36;5.15;;;3.55;;
19030;SDS011;9648;51.130;13.978;2022-09-29T03:27:02;5.28;;;3.65;;
19030;SDS011;9648;51.130;13.978;2022-09-29T03:29:30;4.23;;;3.50;;
19030;SDS011;9648;51.130;13.978;2022-09-29T03:31:57;4.00;;;3.57;;
19030;SDS011;9648;51.130;13.978;2022-09-29T03:34:24;4.50;;;3.30;;
19030;SDS011;9648;51.130;13.978;2022-09-29T03:36:51;4.72;;;3.55;;
19030;SDS011;9648;51.130;13.978;2022-09-29T03:39:17;4.57;;;3.83;;
19030;SDS011;9648;51.130;13.978;2022-09-29T03:41:46;4.20;;;3.47;;
19030;SDS011;9648;51.130;13.978;2022-09-29T03:44:13;4.47;;;3.50;;
19030;SDS011;9648;51.130;13.978;2022-09-29T03:46:39;4.28;;;3.45;;
19030;SDS011;9648;51.130;13.978;2022-09-29T03:49:07;5.03;;;3.30;;
19030;SDS011;9648;51.130;13.978;2022-09-29T03:51:35;3.92;;;3.25;;
19030;SDS011;9648;51.130;13.978;2022-09-29T03:54:02;4.97;;;3.20;;
19030;SDS011;9648;51.130;13.978;2022-09-29T03:56:28;4.40;;;3.45;;
19030;SDS011;9648;51.130;13.978;2022-09-29T03:58:57;3.50;;;3.17;;
19030;SDS011;9648;51.130;13.978;2022-09-29T04:01:23;6.90;;;3.90;;
19030;SDS011;9648;51.130;13.978;2022-09-29T04:03:50;5.72;;;3.65;;
19030;SDS011;9648;51.130;13.978;2022-09-29T04:06:17;3.83;;;3.42;;
19030;SDS011;9648;51.130;13.978;2022-09-29T04:08:44;4.80;;;3.88;;
19030;SDS011;9648;51.130;13.978;2022-09-29T04:11:13;4.97;;;3.78;;
19030;SDS011;9648;51.130;13.978;2022-09-29T04:13:40;4.40;;;3.70;;
19030;SDS011;9648;51.130;13.978;2022-09-29T04:16:08;4.15;;;3.28;;
19030;SDS011;9648;51.130;13.978;2022-09-29T04:18:35;4.35;;;3.47;;
19030;SDS011;9648;51.130;13.978;2022-09-29T04:21:04;4.72;;;3.40;;
19030;SDS011;9648;51.130;13.978;2022-09-29T04:23:31;4.75;;;3.58;;
19030;SDS011;9648;51.130;13.978;2022-09-29T04:25:58;4.25;;;3.50;;
19030;SDS011;9648;51.130;13.978;2022-09-29T04:28:26;4.75;;;3.50;;
19030;SDS011;9648;51.130;13.978;2022-09-29T04:30:53;4.47;;;3.50;;
19030;SDS011;9648;51.130;13.978;2022-09-29T04:33:22;4.47;;;3.60;;
19030;SDS011;9648;51.130;13.978;2022-09-29T04:35:48;3.80;;;3.40;;
19030;SDS011;9648;51.130;13.978;2022-09-29T04:38:15;5.40;;;3.55;;
19030;SDS011;9648;51.130;13.978;2022-09-29T04:40:42;4.78;;;3.72;;
19030;SDS011;9648;51.130;13.978;2022-09-29T04:43:09;4.80;;;3.63;;
19030;SDS011;9648;51.130;13.978;2022-09-29T04:45:35;5.55;;;3.75;;
19030;SDS011;9648;51.130;13.978;2022-09-29T04:48:02;3.97;;;3.30;;
19030;SDS011;9648;51.130;13.978;2022-09-29T04:50:30;4.95;;;3.83;;
19030;SDS011;9648;51.130;13.978;2022-09-29T04:52:57;4.85;;;3.80;;
19030;SDS011;9648;51.130;13.978;2022-09-29T04:55:24;5.23;;;3.90;;
19030;SDS011;9648;51.130;13.978;2022-09-29T04:57:52;4.88;;;4.28;;
19030;SDS011;9648;51.130;13.978;2022-09-29T05:00:18;5.05;;;4.03;;
19030;SDS011;9648;51.130;13.978;2022-09-29T05:02:45;4.63;;;3.83;;
19030;SDS011;9648;51.130;13.978;2022-09-29T05:05:12;4.88;;;4.15;;
19030;SDS011;9648;51.130;13.978;2022-09-29T05:07:40;4.30;;;3.80;;
19030;SDS011;9648;51.130;13.978;2022-09-29T05:10:08;5.60;;;4.13;;
19030;SDS011;9648;51.130;13.978;2022-09-29T05:12:35;6.20;;;4.05;;
19030;SDS011;9648;51.130;13.978;2022-09-29T05:15:02;5.13;;;3.70;;
19030;SDS011;9648;51.130;13.978;2022-09-29T05:17:30;5.93;;;4.35;;
19030;SDS011;9648;51.130;13.978;2022-09-29T05:19:57;5.57;;;3.58;;
19030;SDS011;9648;51.130;13.978;2022-09-29T05:22:23;5.25;;;4.38;;
19030;SDS011;9648;51.130;13.978;2022-09-29T05:24:51;4.85;;;4.00;;
19030;SDS011;9648;51.130;13.978;2022-09-29T05:27:18;5.65;;;4.22;;
19030;SDS011;9648;51.130;13.978;2022-09-29T05:29:46;4.82;;;3.85;;
19030;SDS011;9648;51.130;13.978;2022-09-29T05:32:13;5.15;;;4.20;;
19030;SDS011;9648;51.130;13.978;2022-09-29T05:34:40;6.05;;;4.30;;
19030;SDS011;9648;51.130;13.978;2022-09-29T05:37:07;6.22;;;4.13;;
19030;SDS011;9648;51.130;13.978;2022-09-29T05:39:34;5.50;;;4.00;;
19030;SDS011;9648;51.130;13.978;2022-09-29T05:42:03;6.10;;;4.28;;
19030;SDS011;9648;51.130;13.978;2022-09-29T05:44:30;5.57;;;4.40;;
19030;SDS011;9648;51.130;13.978;2022-09-29T05:46:57;5.32;;;4.07;;
19030;SDS011;9648;51.130;13.978;2022-09-29T05:49:24;5.35;;;3.95;;
19030;SDS011;9648;51.130;13.978;2022-09-29T05:51:51;5.63;;;3.90;;
19030;SDS011;9648;51.130;13.978;2022-09-29T05:54:18;5.30;;;4.10;;
19030;SDS011;9648;51.130;13.978;2022-09-29T05:56:45;4.30;;;3.90;;
19030;SDS011;9648;51.130;13.978;2022-09-29T05:59:13;5.60;;;4.00;;
19030;SDS011;9648;51.130;13.978;2022-09-29T06:01:40;5.40;;;4.60;;
19030;SDS011;9648;51.130;13.978;2022-09-29T06:04:06;6.50;;;4.50;;
19030;SDS011;9648;51.130;13.978;2022-09-29T06:06:33;5.20;;;4.38;;
19030;SDS011;9648;51.130;13.978;2022-09-29T06:09:00;6.07;;;4.60;;
19030;SDS011;9648;51.130;13.978;2022-09-29T06:11:28;5.40;;;4.43;;
19030;SDS011;9648;51.130;13.978;2022-09-29T06:13:56;5.30;;;4.45;;
19030;SDS011;9648;51.130;13.978;2022-09-29T06:16:25;6.18;;;4.82;;
19030;SDS011;9648;51.130;13.978;2022-09-29T06:18:53;6.32;;;4.32;;
19030;SDS011;9648;51.130;13.978;2022-09-29T06:21:21;5.47;;;4.40;;
19030;SDS011;9648;51.130;13.978;2022-09-29T06:23:49;6.28;;;4.47;;
19030;SDS011;9648;51.130;13.978;2022-09-29T06:26:17;6.15;;;4.60;;
19030;SDS011;9648;51.130;13.978;2022-09-29T06:28:45;6.50;;;4.50;;
19030;SDS011;9648;51.130;13.978;2022-09-29T06:31:13;5.53;;;4.63;;
19030;SDS011;9648;51.130;13.978;2022-09-29T06:33:42;6.90;;;4.90;;
19030;SDS011;9648;51.130;13.978;2022-09-29T06:36:11;5.20;;;4.70;;
19030;SDS011;9648;51.130;13.978;2022-09-29T06:38:59;7.10;;;4.72;;
19030;SDS011;9648;51.130;13.978;2022-09-29T06:41:26;5.00;;;4.20;;
19030;SDS011;9648;51.130;13.978;2022-09-29T06:43:54;5.70;;;4.87;;
19030;SDS011;9648;51.130;13.978;2022-09-29T06:46:21;5.50;;;4.60;;
19030;SDS011;9648;51.130;13.978;2022-09-29T06:48:49;5.60;;;4.40;;
19030;SDS011;9648;51.130;13.978;2022-09-29T06:51:16;6.53;;;5.13;;
19030;SDS011;9648;51.130;13.978;2022-09-29T06:53:42;5.80;;;4.95;;
19030;SDS011;9648;51.130;13.978;2022-09-29T06:56:10;5.85;;;4.80;;
19030;SDS011;9648;51.130;13.978;2022-09-29T06:58:37;5.35;;;4.70;;
19030;SDS011;9648;51.130;13.978;2022-09-29T07:01:04;6.07;;;4.70;;
19030;SDS011;9648;51.130;13.978;2022-09-29T07:03:31;5.45;;;4.70;;
19030;SDS011;9648;51.130;13.978;2022-09-29T07:06:02;6.28;;;4.97;;
19030;SDS011;9648;51.130;13.978;2022-09-29T07:08:29;6.53;;;5.45;;
19030;SDS011;9648;51.130;13.978;2022-09-29T07:10:56;6.90;;;4.43;;
19030;SDS011;9648;51.130;13.978;2022-09-29T07:13:24;6.95;;;5.40;;
19030;SDS011;9648;51.130;13.978;2022-09-29T07:15:51;7.32;;;5.35;;
19030;SDS011;9648;51.130;13.978;2022-09-29T07:18:19;7.55;;;5.95;;
19030;SDS011;9648;51.130;13.978;2022-09-29T07:20:45;7.97;;;5.70;;
19030;SDS011;9648;51.130;13.978;2022-09-29T07:23:13;7.63;;;6.28;;
19030;SDS011;9648;51.130;13.978;2022-09-29T07:25:40;9.63;;;6.03;;
19030;SDS011;9648;51.130;13.978;2022-09-29T07:28:07;8.95;;;6.45;;
19030;SDS011;9648;51.130;13.978;2022-09-29T07:30:34;7.90;;;6.22;;
19030;SDS011;9648;51.130;13.978;2022-09-29T07:33:01;8.30;;;6.40;;
19030;SDS011;9648;51.130;13.978;2022-09-29T07:35:28;9.63;;;7.10;;
19030;SDS011;9648;51.130;13.978;2022-09-29T07:37:55;8.70;;;6.50;;
19030;SDS011;9648;51.130;13.978;2022-09-29T07:40:23;9.38;;;6.70;;
19030;SDS011;9648;51.130;13.978;2022-09-29T07:42:50;7.47;;;6.10;;
19030;SDS011;9648;51.130;13.978;2022-09-29T07:45:17;8.32;;;6.47;;
19030;SDS011;9648;51.130;13.978;2022-09-29T07:47:44;7.97;;;6.25;;
19030;SDS011;9648;51.130;13.978;2022-09-29T07:50:11;10.68;;;7.00;;
19030;SDS011;9648;51.130;13.978;2022-09-29T07:52:38;7.45;;;6.28;;
19030;SDS011;9648;51.130;13.978;2022-09-29T07:55:05;8.13;;;6.30;;
19030;SDS011;9648;51.130;13.978;2022-09-29T07:57:33;8.65;;;6.68;;
19030;SDS011;9648;51.130;13.978;2022-09-29T08:00:01;8.07;;;6.53;;
19030;SDS011;9648;51.130;13.978;2022-09-29T08:02:28;7.78;;;6.20;;
19030;SDS011;9648;51.130;13.978;2022-09-29T08:04:54;8.07;;;6.20;;
19030;SDS011;9648;51.130;13.978;2022-09-29T08:07:21;8.88;;;5.93;;
19030;SDS011;9648;51.130;13.978;2022-09-29T08:09:48;7.10;;;6.05;;
19030;SDS011;9648;51.130;13.978;2022-09-29T08:12:15;8.43;;;6.22;;
19030;SDS011;9648;51.130;13.978;2022-09-29T08:14:43;6.35;;;5.40;;
19030;SDS011;9648;51.130;13.978;2022-09-29T08:17:10;6.03;;;5.43;;
19030;SDS011;9648;51.130;13.978;2022-09-29T08:19:36;7.25;;;5.50;;
19030;SDS011;9648;51.130;13.978;2022-09-29T08:22:03;6.70;;;5.57;;
19030;SDS011;9648;51.130;13.978;2022-09-29T08:24:30;6.05;;;4.97;;
19030;SDS011;9648;51.130;13.978;2022-09-29T08:26:57;6.82;;;4.70;;
19030;SDS011;9648;51.130;13.978;2022-09-29T08:29:23;6.22;;;5.00;;
19030;SDS011;9648;51.130;13.978;2022-09-29T08:31:51;6.80;;;4.70;;
19030;SDS011;9648;51.130;13.978;2022-09-29T08:34:20;5.53;;;4.53;;
19030;SDS011;9648;51.130;13.978;2022-09-29T08:36:47;5.38;;;4.63;;
19030;SDS011;9648;51.130;13.978;2022-09-29T08:39:14;5.63;;;4.40;;
19030;SDS011;9648;51.130;13.978;2022-09-29T08:41:45;5.13;;;4.63;;
19030;SDS011;9648;51.130;13.978;2022-09-29T08:44:18;5.03;;;4.40;;
19030;SDS011;9648;51.130;13.978;2022-09-29T08:46:53;5.07;;;4.07;;
19030;SDS011;9648;51.130;13.978;2022-09-29T08:49:24;6.03;;;4.47;;
19030;SDS011;9648;51.130;13.978;2022-09-29T08:51:55;4.40;;;3.90;;
19030;SDS011;9648;51.130;13.978;2022-09-29T08:54:26;4.32;;;3.90;;
19030;SDS011;9648;51.130;13.978;2022-09-29T08:56:58;4.80;;;3.92;;
19030;SDS011;9648;51.130;13.978;2022-09-29T08:59:25;4.97;;;4.13;;
19030;SDS011;9648;51.130;13.978;2022-09-29T09:02:02;4.80;;;4.30;;
19030;SDS011;9648;51.130;13.978;2022-09-29T09:04:55;4.93;;;4.00;;
19030;SDS011;9648;51.130;13.978;2022-09-29T09:07:36;5.47;;;3.95;;
19030;SDS011;9648;51.130;13.978;2022-09-29T09:10:13;5.80;;;4.10;;
19030;SDS011;9648;51.130;13.978;2022-09-29T09:12:53;6.28;;;4.43;;
19030;SDS011;9648;51.130;13.978;2022-09-29T09:15:37;4.88;;;4.03;;
19030;SDS011;9648;51.130;13.978;2022-09-29T09:18:19;5.43;;;4.10;;
19030;SDS011;9648;51.130;13.978;2022-09-29T09:20:58;5.07;;;4.57;;
19030;SDS011;9648;51.130;13.978;2022-09-29T09:23:33;6.85;;;4.65;;
19030;SDS011;9648;51.130;13.978;2022-09-29T09:26:08;4.28;;;3.88;;
19030;SDS011;9648;51.130;13.978;2022-09-29T09:28:36;4.95;;;4.15;;
19030;SDS011;9648;51.130;13.978;2022-09-29T09:31:08;5.35;;;4.35;;
19030;SDS011;9648;51.130;13.978;2022-09-29T09:33:43;5.45;;;4.30;;
19030;SDS011;9648;51.130;13.978;2022-09-29T09:36:15;4.30;;;3.88;;
19030;SDS011;9648;51.130;13.978;2022-09-29T09:38:46;5.47;;;4.65;;
19030;SDS011;9648;51.130;13.978;2022-09-29T09:41:20;5.23;;;4.37;;
19030;SDS011;9648;51.130;13.978;2022-09-29T09:43:49;5.93;;;4.45;;
19030;SDS011;9648;51.130;13.978;2022-09-29T09:46:22;4.70;;;4.10;;
19030;SDS011;9648;51.130;13.978;2022-09-29T09:48:56;6.50;;;4.70;;
19030;SDS011;9648;51.130;13.978;2022-09-29T09:51:29;5.88;;;4.68;;
19030;SDS011;9648;51.130;13.978;2022-09-29T09:54:01;5.65;;;4.72;;
19030;SDS011;9648;51.130;13.978;2022-09-29T09:56:40;7.30;;;5.50;;
19030;SDS011;9648;51.130;13.978;2022-09-29T09:59:21;5.97;;;4.68;;
19030;SDS011;9648;51.130;13.978;2022-09-29T10:01:58;5.60;;;4.67;;
19030;SDS011;9648;51.130;13.978;2022-09-29T10:04:26;5.72;;;5.13;;
19030;SDS011;9648;51.130;13.978;2022-09-29T10:06:53;5.73;;;5.00;;
19030;SDS011;9648;51.130;13.978;2022-09-29T10:09:21;7.43;;;5.40;;
19030;SDS011;9648;51.130;13.978;2022-09-29T10:11:48;7.28;;;5.90;;
19030;SDS011;9648;51.130;13.978;2022-09-29T10:14:17;6.47;;;5.00;;
19030;SDS011;9648;51.130;13.978;2022-09-29T10:16:49;5.45;;;4.80;;
19030;SDS011;9648;51.130;13.978;2022-09-29T10:19:20;5.47;;;4.80;;
19030;SDS011;9648;51.130;13.978;2022-09-29T10:21:49;4.85;;;4.25;;
19030;SDS011;9648;51.130;13.978;2022-09-29T10:24:20;6.10;;;4.20;;
19030;SDS011;9648;51.130;13.978;2022-09-29T10:26:49;5.35;;;4.30;;
19030;SDS011;9648;51.130;13.978;2022-09-29T10:29:22;6.70;;;4.90;;
19030;SDS011;9648;51.130;13.978;2022-09-29T10:31:57;5.90;;;4.43;;
19030;SDS011;9648;51.130;13.978;2022-09-29T10:34:26;5.78;;;4.55;;
19030;SDS011;9648;51.130;13.978;2022-09-29T10:36:56;5.55;;;4.50;;
19030;SDS011;9648;51.130;13.978;2022-09-29T10:39:33;6.43;;;4.50;;
19030;SDS011;9648;51.130;13.978;2022-09-29T10:42:14;4.40;;;3.88;;
19030;SDS011;9648;51.130;13.978;2022-09-29T10:44:48;6.05;;;4.50;;
19030;SDS011;9648;51.130;13.978;2022-09-29T10:47:16;6.50;;;4.38;;
19030;SDS011;9648;51.130;13.978;2022-09-29T10:49:46;3.78;;;3.38;;
19030;SDS011;9648;51.130;13.978;2022-09-29T10:52:22;3.08;;;2.78;;
19030;SDS011;9648;51.130;13.978;2022-09-29T10:54:52;5.93;;;3.50;;
19030;SDS011;9648;51.130;13.978;2022-09-29T10:57:22;3.30;;;2.85;;
19030;SDS011;9648;51.130;13.978;2022-09-29T10:59:51;4.30;;;2.87;;
19030;SDS011;9648;51.130;13.978;2022-09-29T11:02:20;3.83;;;3.00;;
19030;SDS011;9648;51.130;13.978;2022-09-29T11:04:50;3.33;;;3.00;;
19030;SDS011;9648;51.130;13.978;2022-09-29T11:07:20;3.30;;;3.00;;
19030;SDS011;9648;51.130;13.978;2022-09-29T11:09:47;3.53;;;3.08;;
19030;SDS011;9648;51.130;13.978;2022-09-29T11:14:57;3.65;;;3.35;;
19030;SDS011;9648;51.130;13.978;2022-09-29T11:17:26;3.40;;;3.00;;
19030;SDS011;9648;51.130;13.978;2022-09-29T11:19:56;3.60;;;3.00;;
19030;SDS011;9648;51.130;13.978;2022-09-29T11:25:28;3.70;;;3.10;;
19030;SDS011;9648;51.130;13.978;2022-09-29T11:28:13;5.28;;;3.00;;
19030;SDS011;9648;51.130;13.978;2022-09-29T11:31:05;3.60;;;2.90;;
19030;SDS011;9648;51.130;13.978;2022-09-29T11:33:47;3.72;;;3.00;;
19030;SDS011;9648;51.130;13.978;2022-09-29T11:36:27;3.53;;;2.70;;
19030;SDS011;9648;51.130;13.978;2022-09-29T11:39:17;4.05;;;2.80;;
19030;SDS011;9648;51.130;13.978;2022-09-29T11:41:57;3.88;;;2.83;;
19030;SDS011;9648;51.130;13.978;2022-09-29T11:44:34;3.30;;;2.67;;
19030;SDS011;9648;51.130;13.978;2022-09-29T11:47:26;3.90;;;2.67;;
19030;SDS011;9648;51.130;13.978;2022-09-29T11:50:29;2.97;;;2.30;;
19030;SDS011;9648;51.130;13.978;2022-09-29T11:53:08;2.97;;;2.20;;
19030;SDS011;9648;51.130;13.978;2022-09-29T11:55:51;2.50;;;2.10;;
19030;SDS011;9648;51.130;13.978;2022-09-29T11:58:32;2.80;;;2.20;;
19030;SDS011;9648;51.130;13.978;2022-09-29T12:01:14;3.25;;;2.40;;
19030;SDS011;9648;51.130;13.978;2022-09-29T12:03:51;3.83;;;2.42;;
19030;SDS011;9648;51.130;13.978;2022-09-29T12:09:34;3.03;;;2.03;;
19030;SDS011;9648;51.130;13.978;2022-09-29T12:12:21;2.47;;;1.87;;
19030;SDS011;9648;51.130;13.978;2022-09-29T12:15:00;2.78;;;2.08;;
19030;SDS011;9648;51.130;13.978;2022-09-29T12:17:34;3.05;;;1.95;;
19030;SDS011;9648;51.130;13.978;2022-09-29T12:20:04;2.53;;;1.97;;
19030;SDS011;9648;51.130;13.978;2022-09-29T12:22:39;3.30;;;2.50;;
19030;SDS011;9648;51.130;13.978;2022-09-29T12:25:09;3.60;;;2.28;;
19030;SDS011;9648;51.130;13.978;2022-09-29T12:27:41;3.17;;;2.10;;
19030;SDS011;9648;51.130;13.978;2022-09-29T12:30:13;2.35;;;2.03;;
19030;SDS011;9648;51.130;13.978;2022-09-29T12:32:43;2.40;;;2.00;;
19030;SDS011;9648;51.130;13.978;2022-09-29T12:35:16;2.15;;;1.90;;
19030;SDS011;9648;51.130;13.978;2022-09-29T12:37:48;2.20;;;1.92;;
19030;SDS011;9648;51.130;13.978;2022-09-29T12:40:23;2.55;;;1.95;;
19030;SDS011;9648;51.130;13.978;2022-09-29T12:43:00;2.90;;;1.85;;
19030;SDS011;9648;51.130;13.978;2022-09-29T12:45:34;6.18;;;2.40;;
19030;SDS011;9648;51.130;13.978;2022-09-29T12:48:22;2.60;;;1.77;;
19030;SDS011;9648;51.130;13.978;2022-09-29T12:51:11;1.60;;;1.50;;
19030;SDS011;9648;51.130;13.978;2022-09-29T12:53:48;2.30;;;1.60;;
19030;SDS011;9648;51.130;13.978;2022-09-29T12:56:22;1.85;;;1.55;;
19030;SDS011;9648;51.130;13.978;2022-09-29T12:58:56;2.70;;;2.00;;
19030;SDS011;9648;51.130;13.978;2022-09-29T13:01:29;3.17;;;2.40;;
19030;SDS011;9648;51.130;13.978;2022-09-29T13:04:20;1.70;;;1.60;;
19030;SDS011;9648;51.130;13.978;2022-09-29T13:07:33;3.55;;;2.35;;
19030;SDS011;9648;51.130;13.978;2022-09-29T13:10:19;6.80;;;3.63;;
19030;SDS011;9648;51.130;13.978;2022-09-29T13:13:08;4.32;;;2.17;;
19030;SDS011;9648;51.130;13.978;2022-09-29T13:16:04;2.40;;;1.90;;
19030;SDS011;9648;51.130;13.978;2022-09-29T13:21:39;2.05;;;1.77;;
19030;SDS011;9648;51.130;13.978;2022-09-29T13:24:21;3.50;;;1.88;;
19030;SDS011;9648;51.130;13.978;2022-09-29T13:29:54;1.90;;;1.50;;
19030;SDS011;9648;51.130;13.978;2022-09-29T13:32:27;2.40;;;1.60;;
19030;SDS011;9648;51.130;13.978;2022-09-29T13:34:57;1.58;;;1.40;;
19030;SDS011;9648;51.130;13.978;2022-09-29T13:37:27;1.58;;;1.30;;
19030;SDS011;9648;51.130;13.978;2022-09-29T13:40:08;3.25;;;1.67;;
19030;SDS011;9648;51.130;13.978;2022-09-29T13:42:45;2.78;;;2.22;;
19030;SDS011;9648;51.130;13.978;2022-09-29T13:54:28;3.22;;;2.13;;
19030;SDS011;9648;51.130;13.978;2022-09-29T13:56:59;3.42;;;2.08;;
19030;SDS011;9648;51.130;13.978;2022-09-29T13:59:31;2.85;;;2.15;;
19030;SDS011;9648;51.130;13.978;2022-09-29T14:01:58;3.45;;;2.10;;
19030;SDS011;9648;51.130;13.978;2022-09-29T14:04:40;3.55;;;2.00;;
19030;SDS011;9648;51.130;13.978;2022-09-29T14:07:10;2.63;;;2.20;;
19030;SDS011;9648;51.130;13.978;2022-09-29T14:09:39;3.50;;;2.38;;
19030;SDS011;9648;51.130;13.978;2022-09-29T14:12:14;6.03;;;2.83;;
19030;SDS011;9648;51.130;13.978;2022-09-29T14:14:43;2.53;;;2.30;;
19030;SDS011;9648;51.130;13.978;2022-09-29T14:17:17;3.42;;;2.80;;
19030;SDS011;9648;51.130;13.978;2022-09-29T14:19:50;5.45;;;3.03;;
19030;SDS011;9648;51.130;13.978;2022-09-29T14:25:26;3.45;;;2.88;;
19030;SDS011;9648;51.130;13.978;2022-09-29T14:28:00;3.83;;;2.83;;
19030;SDS011;9648;51.130;13.978;2022-09-29T14:30:38;5.27;;;2.87;;
19030;SDS011;9648;51.130;13.978;2022-09-29T14:33:08;3.75;;;2.85;;
19030;SDS011;9648;51.130;13.978;2022-09-29T14:35:40;3.72;;;2.83;;
19030;SDS011;9648;51.130;13.978;2022-09-29T14:38:12;3.33;;;2.70;;
19030;SDS011;9648;51.130;13.978;2022-09-29T14:40:52;5.28;;;4.00;;
19030;SDS011;9648;51.130;13.978;2022-09-29T14:43:20;5.25;;;4.20;;
19030;SDS011;9648;51.130;13.978;2022-09-29T14:46:02;5.97;;;4.68;;
19030;SDS011;9648;51.130;13.978;2022-09-29T14:49:21;3.78;;;2.63;;
19030;SDS011;9648;51.130;13.978;2022-09-29T14:52:15;3.67;;;2.40;;
19030;SDS011;9648;51.130;13.978;2022-09-29T14:54:53;4.95;;;2.40;;
19030;SDS011;9648;51.130;13.978;2022-09-29T14:57:31;3.45;;;2.65;;
19030;SDS011;9648;51.130;13.978;2022-09-29T15:00:10;4.18;;;2.92;;
19030;SDS011;9648;51.130;13.978;2022-09-29T15:02:42;4.32;;;3.10;;
19030;SDS011;9648;51.130;13.978;2022-09-29T15:05:12;4.63;;;3.38;;
19030;SDS011;9648;51.130;13.978;2022-09-29T15:07:42;5.18;;;3.85;;
19030;SDS011;9648;51.130;13.978;2022-09-29T15:10:18;4.67;;;3.50;;
19030;SDS011;9648;51.130;13.978;2022-09-29T15:12:47;6.43;;;3.85;;
19030;SDS011;9648;51.130;13.978;2022-09-29T15:17:59;3.67;;;2.80;;
19030;SDS011;9648;51.130;13.978;2022-09-29T15:20:42;3.88;;;2.97;;
19030;SDS011;9648;51.130;13.978;2022-09-29T15:23:30;3.38;;;2.97;;
19030;SDS011;9648;51.130;13.978;2022-09-29T15:26:25;3.80;;;3.00;;
19030;SDS011;9648;51.130;13.978;2022-09-29T15:28:56;3.70;;;3.10;;
19030;SDS011;9648;51.130;13.978;2022-09-29T15:31:25;3.45;;;2.90;;
19030;SDS011;9648;51.130;13.978;2022-09-29T15:33:54;4.57;;;3.00;;
19030;SDS011;9648;51.130;13.978;2022-09-29T15:36:22;3.42;;;2.90;;
19030;SDS011;9648;51.130;13.978;2022-09-29T15:38:52;3.90;;;3.03;;
19030;SDS011;9648;51.130;13.978;2022-09-29T15:41:20;3.30;;;2.78;;
19030;SDS011;9648;51.130;13.978;2022-09-29T15:43:55;4.43;;;3.37;;
19030;SDS011;9648;51.130;13.978;2022-09-29T15:46:23;3.97;;;3.20;;
19030;SDS011;9648;51.130;13.978;2022-09-29T15:49:05;3.72;;;3.10;;